createdAt,value
2019-05-05T00:02:19.670Z,2.70
2019-05-05T00:05:08.833Z,2.70
2019-05-05T00:07:40.050Z,2.80
2019-05-05T00:10:15.123Z,2.80
2019-05-05T00:13:04.501Z,2.80
2019-05-05T00:16:11.780Z,2.90
2019-05-05T00:18:48.836Z,2.90
2019-05-05T00:21:21.873Z,3.00
2019-05-05T00:23:52.699Z,2.90
2019-05-05T00:26:27.834Z,3.00
2019-05-05T00:28:56.336Z,3.00
2019-05-05T00:31:30.507Z,3.00
2019-05-05T00:34:06.274Z,3.00
2019-05-05T00:36:38.294Z,3.00
2019-05-05T00:39:11.690Z,3.00
2019-05-05T00:41:42.400Z,3.10
2019-05-05T00:44:15.174Z,3.10
2019-05-05T00:47:16.049Z,3.20
2019-05-05T00:49:49.414Z,3.20
2019-05-05T00:52:20.182Z,3.20
2019-05-05T00:54:52.056Z,3.20
2019-05-05T00:57:24.283Z,3.30
2019-05-05T00:59:55.697Z,3.30
2019-05-05T01:02:44.816Z,3.30
2019-05-05T01:05:34.382Z,3.30
2019-05-05T01:08:08.375Z,3.30
2019-05-05T01:10:38.912Z,3.30
2019-05-05T01:13:09.420Z,3.40
2019-05-05T01:15:39.940Z,3.40
2019-05-05T01:18:11.600Z,3.40
2019-05-05T01:20:42.104Z,3.40
2019-05-05T01:23:14.891Z,3.40
2019-05-05T01:25:47.107Z,3.40
2019-05-05T01:28:17.352Z,3.40
2019-05-05T01:30:50.466Z,3.40
2019-05-05T01:33:30.061Z,3.40
2019-05-05T01:36:00.646Z,3.30
2019-05-05T01:38:37.666Z,3.40
2019-05-05T01:41:14.801Z,3.30
2019-05-05T01:43:46.264Z,3.40
2019-05-05T01:46:18.120Z,3.40
2019-05-05T01:48:48.576Z,3.30
2019-05-05T01:51:19.084Z,3.40
2019-05-05T01:53:49.652Z,3.40
2019-05-05T01:56:20.270Z,3.40
2019-05-05T01:58:51.344Z,3.50
2019-05-05T02:01:21.940Z,3.50
2019-05-05T02:03:54.718Z,3.40
2019-05-05T02:06:25.005Z,3.50
2019-05-05T02:08:55.458Z,3.50
2019-05-05T02:11:25.964Z,3.50
2019-05-05T02:13:56.494Z,3.50
2019-05-05T02:16:27.093Z,3.50
2019-05-05T02:18:57.568Z,3.50
2019-05-05T02:21:28.166Z,3.50
2019-05-05T02:23:58.617Z,3.50
2019-05-05T02:26:29.126Z,3.50
2019-05-05T02:29:06.488Z,3.50
2019-05-05T02:31:58.949Z,3.50
2019-05-05T02:34:32.074Z,3.60
2019-05-05T02:37:05.261Z,3.50
2019-05-05T02:39:38.101Z,3.50
2019-05-05T02:42:07.119Z,3.50
2019-05-05T02:44:38.949Z,3.50
2019-05-05T02:47:25.667Z,3.50
2019-05-05T02:49:58.816Z,3.50
2019-05-05T02:52:30.665Z,3.50
2019-05-05T02:55:03.971Z,3.50
2019-05-05T02:57:34.595Z,3.40
2019-05-05T03:00:34.826Z,3.40
2019-05-05T03:03:07.826Z,3.40
2019-05-05T03:05:39.794Z,3.40
2019-05-05T03:08:10.549Z,2.50
2019-05-05T03:10:41.171Z,3.50
2019-05-05T03:13:13.802Z,3.50
2019-05-05T03:15:55.550Z,3.50
2019-05-05T03:18:26.196Z,3.50
2019-05-05T03:21:04.489Z,3.50
2019-05-05T03:23:29.140Z,3.50
2019-05-05T03:25:59.988Z,3.40
2019-05-05T03:28:41.145Z,3.50
2019-05-05T03:31:16.082Z,3.40
2019-05-05T03:33:46.335Z,3.50
2019-05-05T03:36:17.405Z,3.40
2019-05-05T03:38:49.182Z,3.50
2019-05-05T03:41:25.648Z,3.50
2019-05-05T03:44:04.791Z,3.60
2019-05-05T03:46:36.734Z,3.50
2019-05-05T03:49:07.393Z,3.50
2019-05-05T03:51:38.973Z,3.50
2019-05-05T03:54:09.693Z,3.50
2019-05-05T03:56:40.487Z,3.50
2019-05-05T03:59:11.116Z,3.50
2019-05-05T04:01:59.774Z,3.50
2019-05-05T04:04:33.586Z,3.50
2019-05-05T04:07:04.840Z,3.50
2019-05-05T04:09:35.761Z,3.50
2019-05-05T04:12:06.276Z,3.50
2019-05-05T04:14:38.177Z,3.50
2019-05-05T04:17:14.519Z,3.60
2019-05-05T04:19:47.288Z,3.60
2019-05-05T04:22:18.772Z,3.70
2019-05-05T04:24:50.584Z,3.80
2019-05-05T04:27:21.143Z,3.70
2019-05-05T04:29:51.657Z,3.80
2019-05-05T04:32:24.286Z,3.70
2019-05-05T04:34:54.471Z,3.80
2019-05-05T04:37:24.844Z,3.90
2019-05-05T04:39:55.457Z,3.90
2019-05-05T04:42:25.906Z,3.90
2019-05-05T04:44:56.551Z,4.00
2019-05-05T04:47:34.158Z,4.20
2019-05-05T04:50:20.836Z,4.10
2019-05-05T04:52:54.034Z,4.20
2019-05-05T04:55:24.855Z,4.10
2019-05-05T04:57:56.944Z,4.10
2019-05-05T05:00:27.472Z,4.40
2019-05-05T05:03:07.478Z,4.40
2019-05-05T05:06:14.529Z,4.50
2019-05-05T05:08:44.812Z,4.60
2019-05-05T05:11:15.330Z,4.30
2019-05-05T05:13:45.898Z,4.40
2019-05-05T05:16:16.408Z,4.20
2019-05-05T05:18:46.972Z,4.20
2019-05-05T05:21:17.466Z,4.10
2019-05-05T05:23:48.002Z,4.10
2019-05-05T05:26:18.526Z,3.90
2019-05-05T05:28:49.325Z,4.00
2019-05-05T05:31:19.883Z,4.10
2019-05-05T05:33:54.787Z,4.10
2019-05-05T05:36:25.158Z,4.20
2019-05-05T05:38:59.088Z,4.30
2019-05-05T05:41:46.159Z,4.20
2019-05-05T05:44:44.529Z,4.20
2019-05-05T05:47:45.953Z,4.30
2019-05-05T05:50:22.134Z,4.30
2019-05-05T05:52:54.102Z,4.50
2019-05-05T05:55:24.759Z,4.50
2019-05-05T05:57:56.347Z,4.50
2019-05-05T06:00:26.989Z,4.50
2019-05-05T06:02:57.539Z,4.70
2019-05-05T06:05:31.637Z,4.70
2019-05-05T06:08:04.514Z,4.80
2019-05-05T06:10:34.415Z,5.00
2019-05-05T06:13:04.986Z,5.20
2019-05-05T06:15:36.086Z,5.10
2019-05-05T06:18:06.741Z,5.30
2019-05-05T06:20:37.265Z,5.30
2019-05-05T06:23:07.743Z,5.20
2019-05-05T06:25:38.410Z,5.20
2019-05-05T06:28:08.907Z,5.00
2019-05-05T06:30:39.457Z,5.20
2019-05-05T06:33:10.033Z,5.10
2019-05-05T06:35:40.618Z,5.10
2019-05-05T06:38:13.626Z,5.20
2019-05-05T06:41:23.614Z,5.10
2019-05-05T06:44:18.865Z,5.20
2019-05-05T06:47:01.253Z,5.20
2019-05-05T06:49:31.861Z,5.30
2019-05-05T06:52:04.067Z,5.40
2019-05-05T06:54:34.995Z,5.60
2019-05-05T06:57:06.715Z,5.90
2019-05-05T06:59:37.179Z,6.10
2019-05-05T07:02:07.803Z,6.00
2019-05-05T07:04:39.944Z,6.20
2019-05-05T07:07:10.617Z,6.30
2019-05-05T07:09:41.187Z,6.20
2019-05-05T07:12:13.651Z,6.40
2019-05-05T07:14:44.560Z,6.20
2019-05-05T07:17:15.196Z,6.20
2019-05-05T07:19:45.791Z,6.20
2019-05-05T07:22:17.776Z,6.00
2019-05-05T07:24:51.588Z,6.40
2019-05-05T07:27:24.170Z,6.40
2019-05-05T07:29:54.297Z,6.40
2019-05-05T07:32:24.753Z,6.70
2019-05-05T07:35:04.067Z,7.00
2019-05-05T07:37:36.670Z,6.80
2019-05-05T07:40:07.719Z,6.70
2019-05-05T07:42:38.407Z,6.60
2019-05-05T07:45:21.812Z,7.20
2019-05-05T07:47:43.559Z,6.80
2019-05-05T07:50:28.423Z,7.00
2019-05-05T07:52:47.109Z,6.70
2019-05-05T07:55:18.353Z,6.60
2019-05-05T07:57:48.987Z,6.70
2019-05-05T08:00:19.661Z,6.80
2019-05-05T08:02:50.305Z,6.50
2019-05-05T08:05:20.840Z,6.60
2019-05-05T08:07:51.398Z,6.50
2019-05-05T08:10:24.004Z,6.80
2019-05-05T08:12:54.339Z,6.80
2019-05-05T08:15:26.415Z,7.10
2019-05-05T08:18:18.846Z,7.00
2019-05-05T08:20:53.604Z,7.20
2019-05-05T08:23:45.859Z,7.60
2019-05-05T08:26:34.380Z,7.10
2019-05-05T08:29:24.027Z,6.90
2019-05-05T08:32:04.373Z,7.20
2019-05-05T08:34:35.253Z,7.00
2019-05-05T08:37:05.855Z,7.10
2019-05-05T08:39:36.553Z,7.00
2019-05-05T08:42:07.143Z,7.30
2019-05-05T08:44:38.043Z,7.40
2019-05-05T08:47:08.614Z,7.70
2019-05-05T08:49:39.185Z,7.90
2019-05-05T08:52:09.649Z,7.20
2019-05-05T08:54:40.265Z,6.90
2019-05-05T08:57:10.833Z,6.90
2019-05-05T08:59:41.381Z,7.10
2019-05-05T09:02:15.007Z,7.30
2019-05-05T09:04:47.819Z,7.80
2019-05-05T09:07:18.429Z,7.50
2019-05-05T09:09:48.948Z,7.40
2019-05-05T09:12:19.466Z,7.50
2019-05-05T09:14:49.964Z,7.60
2019-05-05T09:17:20.591Z,7.50
2019-05-05T09:19:51.163Z,7.30
2019-05-05T09:22:21.723Z,7.30
2019-05-05T09:25:01.254Z,7.40
2019-05-05T09:27:44.270Z,7.50
2019-05-05T09:30:16.583Z,7.10
2019-05-05T09:32:47.623Z,7.10
2019-05-05T09:35:19.455Z,7.10
2019-05-05T09:37:51.056Z,7.20
2019-05-05T09:40:33.401Z,7.80
2019-05-05T09:43:05.393Z,7.60
2019-05-05T09:45:36.142Z,8.00
2019-05-05T09:48:06.833Z,8.20
2019-05-05T09:50:38.535Z,8.20
2019-05-05T09:53:11.114Z,7.90
2019-05-05T09:55:44.098Z,7.60
2019-05-05T09:58:14.227Z,7.80
2019-05-05T10:00:46.629Z,7.80
2019-05-05T10:03:18.163Z,7.80
2019-05-05T10:05:48.761Z,7.70
2019-05-05T10:08:19.318Z,7.90
2019-05-05T10:10:49.942Z,8.20
2019-05-05T10:13:20.399Z,8.20
2019-05-05T10:15:50.915Z,8.50
2019-05-05T10:18:21.546Z,8.40
2019-05-05T10:20:54.115Z,8.70
2019-05-05T10:23:26.302Z,8.20
2019-05-05T10:26:04.442Z,8.10
2019-05-05T10:28:37.301Z,8.10
2019-05-05T10:31:08.054Z,8.20
2019-05-05T10:33:43.114Z,8.60
2019-05-05T10:36:14.975Z,8.80
2019-05-05T10:38:53.860Z,9.10
2019-05-05T10:41:24.631Z,9.20
2019-05-05T10:43:55.328Z,9.10
2019-05-05T10:46:27.836Z,9.30
2019-05-05T10:49:00.412Z,9.20
2019-05-05T10:51:34.591Z,9.40
2019-05-05T10:54:09.021Z,9.20
2019-05-05T10:56:46.421Z,9.40
2019-05-05T10:59:17.371Z,9.40
2019-05-05T11:01:49.260Z,9.60
2019-05-05T11:04:19.945Z,9.60
2019-05-05T11:06:55.471Z,9.50
2019-05-05T11:09:28.317Z,9.30
2019-05-05T11:12:00.215Z,9.30
2019-05-05T11:14:33.543Z,9.30
2019-05-05T11:17:05.236Z,9.60
2019-05-05T11:19:35.777Z,9.50
2019-05-05T11:22:06.292Z,9.20
2019-05-05T11:24:36.898Z,9.50
2019-05-05T11:27:09.443Z,9.80
2019-05-05T11:29:58.960Z,9.50
2019-05-05T11:32:47.381Z,9.60
2019-05-05T11:35:19.715Z,9.60
2019-05-05T11:37:51.447Z,9.50
2019-05-05T11:40:33.392Z,9.80
2019-05-05T11:43:04.156Z,10.00
2019-05-05T11:45:37.392Z,10.20
2019-05-05T11:48:08.017Z,9.70
2019-05-05T11:50:40.997Z,10.30
2019-05-05T11:53:11.486Z,10.40
2019-05-05T11:55:44.080Z,10.50
2019-05-05T11:58:14.561Z,10.20
2019-05-05T12:00:45.262Z,9.80
2019-05-05T12:03:15.802Z,9.80
2019-05-05T12:05:50.757Z,9.70
2019-05-05T12:08:24.560Z,9.30
2019-05-05T12:11:06.636Z,9.80
2019-05-05T12:13:38.222Z,9.70
2019-05-05T12:16:11.082Z,9.60
2019-05-05T12:18:44.811Z,10.20
2019-05-05T12:21:16.592Z,10.30
2019-05-05T12:23:47.887Z,10.10
2019-05-05T12:26:35.505Z,10.10
2019-05-05T12:29:11.548Z,10.00
2019-05-05T12:31:48.800Z,9.70
2019-05-05T12:34:20.720Z,10.00
2019-05-05T12:36:51.358Z,10.10
2019-05-05T12:39:23.038Z,9.80
2019-05-05T12:41:54.989Z,9.60
2019-05-05T12:44:37.206Z,10.00
2019-05-05T12:47:34.100Z,9.80
2019-05-05T12:50:05.810Z,9.80
2019-05-05T12:52:38.831Z,9.90
2019-05-05T12:55:10.379Z,9.90
2019-05-05T12:57:45.500Z,10.10
2019-05-05T13:00:21.105Z,10.30
2019-05-05T13:02:53.875Z,9.90
2019-05-05T13:05:26.825Z,10.30
2019-05-05T13:08:04.658Z,10.10
2019-05-05T13:10:35.362Z,9.90
2019-05-05T13:13:08.359Z,10.30
2019-05-05T13:15:40.219Z,10.10
2019-05-05T13:18:13.925Z,10.30
2019-05-05T13:20:53.734Z,10.30
2019-05-05T13:23:33.961Z,10.20
2019-05-05T13:26:38.215Z,10.10
2019-05-05T13:29:14.068Z,10.40
2019-05-05T13:31:46.734Z,10.10
2019-05-05T13:34:18.360Z,10.30
2019-05-05T13:36:51.217Z,10.10
2019-05-05T13:39:24.572Z,10.10
2019-05-05T13:41:54.792Z,10.10
2019-05-05T13:44:44.569Z,10.00
2019-05-05T13:47:17.193Z,10.00
2019-05-05T13:49:50.267Z,10.30
2019-05-05T13:52:21.052Z,10.30
2019-05-05T13:54:57.914Z,10.40
2019-05-05T13:57:26.997Z,10.50
2019-05-05T13:59:57.312Z,10.50
2019-05-05T14:02:27.975Z,10.40
2019-05-05T14:05:00.186Z,10.30
2019-05-05T14:07:34.269Z,10.20
2019-05-05T14:10:07.630Z,10.00
2019-05-05T14:12:43.769Z,10.10
2019-05-05T14:15:18.331Z,10.10
2019-05-05T14:17:51.600Z,10.00
2019-05-05T14:20:24.886Z,10.10
2019-05-05T14:22:55.800Z,10.10
2019-05-05T14:25:30.762Z,10.30
2019-05-05T14:28:03.780Z,10.50
2019-05-05T14:31:00.344Z,10.50
2019-05-05T14:33:49.930Z,10.40
2019-05-05T14:36:44.537Z,10.40
2019-05-05T14:39:16.360Z,10.30
2019-05-05T14:41:47.658Z,10.30
2019-05-05T14:44:25.923Z,10.30
2019-05-05T14:46:56.514Z,10.40
2019-05-05T14:49:27.069Z,10.30
2019-05-05T14:52:00.252Z,10.30
2019-05-05T14:54:34.127Z,10.10
2019-05-05T14:57:06.403Z,10.10
2019-05-05T14:59:37.181Z,10.00
2019-05-05T15:02:11.216Z,10.10
2019-05-05T15:04:43.832Z,10.00
2019-05-05T15:07:37.932Z,10.10
2019-05-05T15:10:28.899Z,10.00
2019-05-05T15:13:04.754Z,10.10
2019-05-05T15:15:38.178Z,9.80
2019-05-05T15:18:08.930Z,9.90
2019-05-05T15:20:39.962Z,9.80
2019-05-05T15:23:10.530Z,10.10
2019-05-05T15:25:44.639Z,9.70
2019-05-05T15:28:15.091Z,9.70
2019-05-05T15:30:45.822Z,9.70
2019-05-05T15:33:17.396Z,9.70
2019-05-05T15:35:50.753Z,9.90
2019-05-05T15:38:25.462Z,9.80
2019-05-05T15:40:57.179Z,9.80
2019-05-05T15:43:27.758Z,9.60
2019-05-05T15:46:06.811Z,9.70
2019-05-05T15:48:38.016Z,9.70
2019-05-05T15:51:09.257Z,9.60
2019-05-05T15:53:40.240Z,9.70
2019-05-05T15:56:10.762Z,9.50
2019-05-05T15:58:43.392Z,9.60
2019-05-05T16:01:16.589Z,9.60
2019-05-05T16:03:47.106Z,9.60
2019-05-05T16:06:17.575Z,9.50
2019-05-05T16:08:49.764Z,9.50
2019-05-05T16:11:23.399Z,9.60
2019-05-05T16:13:54.478Z,9.60
2019-05-05T16:16:44.588Z,9.60
2019-05-05T16:19:37.077Z,9.60
2019-05-05T16:22:14.568Z,9.50
2019-05-05T16:24:45.731Z,9.50
2019-05-05T16:27:22.144Z,9.50
2019-05-05T16:29:56.304Z,9.50
2019-05-05T16:32:24.945Z,9.50
2019-05-05T16:34:55.512Z,9.50
2019-05-05T16:37:26.038Z,9.50
2019-05-05T16:40:00.055Z,9.40
2019-05-05T16:42:30.672Z,9.50
2019-05-05T16:45:04.482Z,9.50
2019-05-05T16:47:35.226Z,9.40
2019-05-05T16:50:07.680Z,9.50
2019-05-05T16:52:45.895Z,9.40
2019-05-05T16:55:44.927Z,9.50
2019-05-05T16:58:17.939Z,9.40
2019-05-05T17:00:49.814Z,9.40
2019-05-05T17:03:20.424Z,9.40
2019-05-05T17:05:50.939Z,9.40
2019-05-05T17:08:21.475Z,9.40
2019-05-05T17:10:54.713Z,9.30
2019-05-05T17:13:48.931Z,9.30
2019-05-05T17:16:37.257Z,9.30
2019-05-05T17:19:17.957Z,9.30
2019-05-05T17:22:22.483Z,9.30
2019-05-05T17:24:53.545Z,9.20
2019-05-05T17:27:47.607Z,9.20
2019-05-05T17:30:07.592Z,9.20
2019-05-05T17:32:38.682Z,9.20
2019-05-05T17:35:10.777Z,9.20
2019-05-05T17:37:44.243Z,9.20
2019-05-05T17:40:27.087Z,9.10
2019-05-05T17:43:24.874Z,9.10
2019-05-05T17:46:13.529Z,9.10
2019-05-05T17:49:06.062Z,9.10
2019-05-05T17:51:49.818Z,9.10
2019-05-05T17:54:41.838Z,9.10
2019-05-05T17:57:14.239Z,9.00
2019-05-05T17:59:44.567Z,9.00
2019-05-05T18:02:18.791Z,9.00
2019-05-05T18:04:49.364Z,9.00
2019-05-05T18:07:38.728Z,9.00
2019-05-05T18:10:35.518Z,9.00
2019-05-05T18:13:21.057Z,9.00
2019-05-05T18:15:56.918Z,9.00
2019-05-05T18:18:27.404Z,8.90
2019-05-05T18:20:58.987Z,8.90
2019-05-05T18:23:29.474Z,8.90
2019-05-05T18:26:00.140Z,8.80
2019-05-05T18:28:30.644Z,8.80
2019-05-05T18:31:01.455Z,8.80
2019-05-05T18:33:33.850Z,8.70
2019-05-05T18:36:04.504Z,8.80
2019-05-05T18:38:41.932Z,8.70
2019-05-05T18:41:20.385Z,8.70
2019-05-05T18:43:57.597Z,8.60
2019-05-05T18:46:28.106Z,8.60
2019-05-05T18:48:58.571Z,8.60
2019-05-05T18:51:30.576Z,8.50
2019-05-05T18:54:04.056Z,8.50
2019-05-05T18:56:34.781Z,8.50
2019-05-05T18:59:06.758Z,8.50
2019-05-05T19:02:03.687Z,8.50
2019-05-05T19:04:45.313Z,8.50
2019-05-05T19:07:34.901Z,8.40
2019-05-05T19:10:05.581Z,8.50
2019-05-05T19:12:36.205Z,8.40
2019-05-05T19:15:07.078Z,8.40
2019-05-05T19:17:38.250Z,8.50
2019-05-05T19:20:18.841Z,8.40
2019-05-05T19:22:51.415Z,8.40
2019-05-05T19:25:24.190Z,8.30
2019-05-05T19:27:56.004Z,8.30
2019-05-05T19:30:26.543Z,8.30
2019-05-05T19:32:58.423Z,8.20
2019-05-05T19:35:40.186Z,8.20
2019-05-05T19:38:01.157Z,8.20
2019-05-05T19:40:33.808Z,8.10
2019-05-05T19:43:04.835Z,8.10
2019-05-05T19:45:35.673Z,8.00
2019-05-05T19:48:06.238Z,8.00
2019-05-05T19:50:44.427Z,8.00
2019-05-05T19:53:24.980Z,8.00
2019-05-05T19:55:56.484Z,8.00
2019-05-05T19:58:28.627Z,8.00
2019-05-05T20:01:04.734Z,8.00
2019-05-05T20:03:36.758Z,8.00
2019-05-05T20:06:07.447Z,8.00
2019-05-05T20:08:41.826Z,8.00
2019-05-05T20:11:10.242Z,8.00
2019-05-05T20:13:41.429Z,8.00
2019-05-05T20:16:27.559Z,8.00
2019-05-05T20:19:00.176Z,8.00
2019-05-05T20:21:31.907Z,7.90
2019-05-05T20:24:03.711Z,7.90
2019-05-05T20:26:34.730Z,7.90
2019-05-05T20:29:13.851Z,7.80
2019-05-05T20:31:37.861Z,7.80
2019-05-05T20:34:24.439Z,7.80
2019-05-05T20:37:08.524Z,7.80
2019-05-05T20:39:39.580Z,7.70
2019-05-05T20:42:10.159Z,7.70
2019-05-05T20:44:40.893Z,7.60
2019-05-05T20:47:11.381Z,7.60
2019-05-05T20:49:44.456Z,7.50
2019-05-05T20:52:15.149Z,7.50
2019-05-05T20:54:45.701Z,7.50
2019-05-05T20:57:17.413Z,7.40
2019-05-05T20:59:48.340Z,7.40
2019-05-05T21:02:19.143Z,7.30
2019-05-05T21:04:49.948Z,7.40
2019-05-05T21:07:23.611Z,7.40
2019-05-05T21:09:53.709Z,7.30
2019-05-05T21:12:25.838Z,7.30
2019-05-05T21:14:56.698Z,7.30
2019-05-05T21:17:27.483Z,7.30
2019-05-05T21:19:59.053Z,7.30
2019-05-05T21:22:39.414Z,7.30
2019-05-05T21:25:24.869Z,7.30
2019-05-05T21:27:56.940Z,7.20
2019-05-05T21:30:27.537Z,7.20
2019-05-05T21:32:58.097Z,7.20
2019-05-05T21:35:28.608Z,7.20
2019-05-05T21:37:59.167Z,7.20
2019-05-05T21:40:29.903Z,7.20
2019-05-05T21:43:02.107Z,7.20
2019-05-05T21:45:34.677Z,7.20
2019-05-05T21:48:06.144Z,7.10
2019-05-05T21:50:44.741Z,7.10
2019-05-05T21:53:24.641Z,7.10
2019-05-05T21:56:13.854Z,7.10
2019-05-05T21:58:45.729Z,7.10
2019-05-05T22:01:18.773Z,7.10
2019-05-05T22:03:49.463Z,7.10
2019-05-05T22:06:20.041Z,7.10
2019-05-05T22:08:50.523Z,7.00
2019-05-05T22:11:21.539Z,7.00
2019-05-05T22:13:53.985Z,7.00
2019-05-05T22:16:24.511Z,7.00
2019-05-05T22:18:55.704Z,7.00
2019-05-05T22:21:35.821Z,7.00
2019-05-05T22:24:22.941Z,6.90
2019-05-05T22:26:54.149Z,6.90
2019-05-05T22:29:25.151Z,6.90
2019-05-05T22:31:55.901Z,6.90
2019-05-05T22:34:28.298Z,6.90
2019-05-05T22:37:00.204Z,6.90
2019-05-05T22:39:30.870Z,6.90
2019-05-05T22:42:01.510Z,7.00
2019-05-05T22:44:33.915Z,7.00
2019-05-05T22:47:04.796Z,7.00
2019-05-05T22:49:36.654Z,7.00
2019-05-05T22:52:08.878Z,7.00
2019-05-05T22:54:39.367Z,7.00
2019-05-05T22:57:09.962Z,7.00
2019-05-05T22:59:42.990Z,7.00
2019-05-05T23:02:15.188Z,6.90
2019-05-05T23:04:54.581Z,6.90
2019-05-05T23:07:28.614Z,6.90
2019-05-05T23:09:59.262Z,6.90
2019-05-05T23:12:29.970Z,6.90
2019-05-05T23:15:04.053Z,6.80
2019-05-05T23:18:03.819Z,6.80
2019-05-05T23:20:53.942Z,6.80
2019-05-05T23:23:31.645Z,6.80
2019-05-05T23:26:05.254Z,6.80
2019-05-05T23:28:45.054Z,6.80
2019-05-05T23:31:16.145Z,6.80
2019-05-05T23:33:46.837Z,6.80
2019-05-05T23:36:17.374Z,6.90
2019-05-05T23:38:49.047Z,6.90
2019-05-05T23:41:20.538Z,6.90
2019-05-05T23:43:51.252Z,6.80
2019-05-05T23:46:24.214Z,6.80
2019-05-05T23:48:56.034Z,6.80
2019-05-05T23:51:26.635Z,6.80
2019-05-05T23:53:57.155Z,6.90
2019-05-05T23:56:29.968Z,6.90
2019-05-05T23:59:00.469Z,7.10
